Terminal Aerodrome Forecast
Issued by NWS

Home | Current Version | Previous Version | Text Only | Print | Product List | Glossary On
Versions: 1 2 3 4 5 6 7 8 9 10 11 12 13
000
FTUS46 KSTO 121252 AAA
TAFSMF
TAF AMD
KSMF 121252Z 1213/1312 36003KT 5SM BR SKC
      TEMPO 1213/1216 1/2SM FG BKN001
     FM121800 VRB04KT P6SM SKC
     FM130600 VRB04KT 2SM BR SKC=

USA.gov is the U.S. government's official web portal to all federal, state and local government web resources and services.